createdAt,value
2018-09-03T00:01:38.394Z,33.77
2018-09-03T00:04:07.330Z,27.37
2018-09-03T00:06:35.976Z,31.40
2018-09-03T00:09:06.262Z,24.60
2018-09-03T00:11:35.014Z,32.67
2018-09-03T00:14:03.973Z,37.13
2018-09-03T00:16:32.811Z,31.13
2018-09-03T00:19:01.658Z,29.83
2018-09-03T00:21:30.703Z,27.47
2018-09-03T00:23:59.405Z,27.93
2018-09-03T00:26:28.146Z,26.97
2018-09-03T00:28:56.863Z,26.43
2018-09-03T00:31:30.871Z,31.33
2018-09-03T00:34:04.794Z,26.23
2018-09-03T00:36:38.835Z,25.20
2018-09-03T00:39:13.751Z,30.90
2018-09-03T00:41:47.795Z,25.80
2018-09-03T00:44:21.945Z,29.23
2018-09-03T00:46:59.338Z,27.70
2018-09-03T00:49:28.331Z,35.93
2018-09-03T00:51:56.973Z,28.40
2018-09-03T00:54:25.630Z,33.47
2018-09-03T00:56:54.408Z,35.17
2018-09-03T00:59:23.186Z,29.80
2018-09-03T01:01:51.926Z,28.40
2018-09-03T01:04:20.831Z,30.20
2018-09-03T01:06:49.529Z,29.43
2018-09-03T01:09:18.546Z,27.60
2018-09-03T01:11:47.286Z,31.27
2018-09-03T01:14:16.015Z,30.80
2018-09-03T01:16:44.683Z,31.37
2018-09-03T01:19:13.371Z,28.83
2018-09-03T01:21:42.174Z,30.10
2018-09-03T01:24:10.839Z,27.43
2018-09-03T01:26:39.751Z,28.40
2018-09-03T01:29:08.410Z,33.43
2018-09-03T01:31:37.338Z,36.80
2018-09-03T01:34:06.103Z,28.67
2018-09-03T01:36:34.750Z,26.87
2018-09-03T01:39:03.613Z,32.07
2018-09-03T01:41:32.282Z,30.93
2018-09-03T01:44:01.080Z,31.10
2018-09-03T01:46:29.741Z,28.13
2018-09-03T01:49:01.473Z,31.73
2018-09-03T01:51:30.418Z,34.03
2018-09-03T01:53:59.152Z,33.20
2018-09-03T01:56:27.787Z,35.50
2018-09-03T01:58:56.666Z,43.43
2018-09-03T02:01:25.317Z,32.60
2018-09-03T02:03:54.110Z,32.10
2018-09-03T02:06:22.794Z,36.20
2018-09-03T02:08:51.490Z,38.93
2018-09-03T02:11:20.243Z,31.67
2018-09-03T02:13:49.021Z,40.30
2018-09-03T02:16:17.709Z,37.70
2018-09-03T02:18:46.525Z,37.80
2018-09-03T02:21:15.288Z,43.63
2018-09-03T02:23:44.150Z,37.00
2018-09-03T02:26:12.864Z,40.10
2018-09-03T02:28:41.605Z,36.17
2018-09-03T02:31:10.301Z,45.90
2018-09-03T02:33:39.613Z,37.20
2018-09-03T02:36:08.318Z,39.20
2018-09-03T02:38:37.046Z,37.53
2018-09-03T02:41:06.061Z,35.60
2018-09-03T02:43:35.171Z,37.73
2018-09-03T02:46:03.827Z,44.43
2018-09-03T02:48:32.489Z,39.60
2018-09-03T02:51:01.230Z,35.80
2018-09-03T02:53:30.090Z,42.30
2018-09-03T02:55:58.787Z,39.07
2018-09-03T02:58:27.509Z,39.20
2018-09-03T03:00:56.274Z,47.03
2018-09-03T03:03:24.981Z,36.50
2018-09-03T03:05:53.980Z,41.60
2018-09-03T03:08:22.735Z,40.90
2018-09-03T03:10:51.526Z,42.77
2018-09-03T03:13:20.311Z,39.40
2018-09-03T03:15:48.945Z,38.80
2018-09-03T03:18:17.785Z,42.50
2018-09-03T03:20:46.458Z,47.07
2018-09-03T03:23:15.166Z,47.77
2018-09-03T03:25:43.875Z,44.97
2018-09-03T03:28:12.513Z,47.70
2018-09-03T03:30:41.201Z,41.70
2018-09-03T03:33:09.936Z,44.60
2018-09-03T03:35:38.779Z,43.70
2018-09-03T03:38:07.469Z,45.13
2018-09-03T03:40:36.101Z,46.47
2018-09-03T03:43:04.853Z,44.20
2018-09-03T03:45:33.674Z,40.43
2018-09-03T03:48:02.355Z,44.47
2018-09-03T03:50:31.197Z,43.60
2018-09-03T03:52:59.913Z,46.10
2018-09-03T03:55:28.665Z,44.60
2018-09-03T03:57:57.533Z,41.30
2018-09-03T04:00:26.266Z,39.50
2018-09-03T04:02:55.099Z,42.83
2018-09-03T04:05:23.752Z,42.00
2018-09-03T04:07:52.469Z,46.87
2018-09-03T04:10:21.458Z,44.20
2018-09-03T04:12:54.129Z,38.60
2018-09-03T04:15:23.891Z,36.70
2018-09-03T04:17:52.601Z,41.97
2018-09-03T04:20:21.274Z,39.50
2018-09-03T04:22:50.051Z,43.47
2018-09-03T04:25:18.800Z,38.27
2018-09-03T04:27:47.542Z,38.90
2018-09-03T04:30:16.370Z,45.60
2018-09-03T04:32:45.034Z,40.90
2018-09-03T04:35:13.995Z,37.37
2018-09-03T04:37:42.756Z,42.83
2018-09-03T04:40:11.545Z,48.37
2018-09-03T04:42:40.254Z,40.90
2018-09-03T04:45:09.030Z,50.57
2018-09-03T04:47:37.902Z,39.60
2018-09-03T04:50:06.727Z,43.17
2018-09-03T04:52:35.433Z,40.03
2018-09-03T04:55:04.315Z,45.00
2018-09-03T04:57:33.014Z,44.37
2018-09-03T05:00:01.870Z,37.30
2018-09-03T05:02:30.602Z,44.23
2018-09-03T05:04:59.291Z,39.60
2018-09-03T05:07:27.977Z,42.77
2018-09-03T05:09:56.673Z,39.07
2018-09-03T05:12:25.587Z,41.70
2018-09-03T05:14:54.227Z,40.47
2018-09-03T05:17:23.038Z,38.93
2018-09-03T05:19:51.697Z,43.67
2018-09-03T05:22:20.469Z,40.37
2018-09-03T05:24:49.639Z,42.47
2018-09-03T05:27:18.565Z,37.60
2018-09-03T05:29:47.550Z,46.90
2018-09-03T05:32:16.237Z,43.63
2018-09-03T05:34:45.274Z,52.60
2018-09-03T05:37:14.054Z,36.47
2018-09-03T05:39:42.968Z,34.87
2018-09-03T05:42:11.625Z,38.60
2018-09-03T05:44:40.571Z,43.67
2018-09-03T05:47:09.313Z,36.53
2018-09-03T05:49:37.961Z,37.70
2018-09-03T05:52:06.737Z,41.57
2018-09-03T05:54:35.494Z,44.00
2018-09-03T05:57:04.421Z,38.87
2018-09-03T05:59:33.102Z,39.27
2018-09-03T06:02:01.857Z,42.93
2018-09-03T06:04:30.805Z,37.60
2018-09-03T06:06:59.504Z,36.00
2018-09-03T06:09:28.972Z,31.83
2018-09-03T06:11:57.817Z,40.20
2018-09-03T06:14:26.545Z,37.17
2018-09-03T06:16:55.331Z,43.90
2018-09-03T06:19:24.089Z,38.10
2018-09-03T06:21:52.754Z,33.67
2018-09-03T06:24:21.572Z,38.90
2018-09-03T06:26:50.222Z,37.53
2018-09-03T06:29:19.138Z,35.30
2018-09-03T06:31:47.846Z,33.20
2018-09-03T06:34:16.537Z,41.20
2018-09-03T06:36:45.205Z,46.33
2018-09-03T06:39:13.928Z,38.67
2018-09-03T06:41:42.597Z,40.70
2018-09-03T06:44:11.225Z,38.20
2018-09-03T06:46:39.980Z,39.27
2018-09-03T06:49:08.751Z,40.50
2018-09-03T06:51:37.383Z,40.67
2018-09-03T06:54:06.253Z,38.40
2018-09-03T06:56:34.996Z,34.30
2018-09-03T06:59:03.730Z,40.30
2018-09-03T07:01:32.579Z,38.93
2018-09-03T07:04:01.319Z,39.40
2018-09-03T07:06:30.078Z,40.27
2018-09-03T07:08:59.383Z,37.73
2018-09-03T07:11:28.274Z,43.40
2018-09-03T07:13:57.025Z,41.00
2018-09-03T07:16:25.756Z,34.80
2018-09-03T07:18:54.525Z,40.37
2018-09-03T07:21:23.246Z,41.00
2018-09-03T07:23:52.213Z,28.50
2018-09-03T07:26:21.421Z,39.63
2018-09-03T07:28:50.326Z,34.07
2018-09-03T07:31:19.459Z,36.80
2018-09-03T07:33:48.196Z,50.33
2018-09-03T07:36:16.969Z,37.00
2018-09-03T07:38:45.829Z,45.20
2018-09-03T07:41:14.532Z,37.77
2018-09-03T07:43:43.247Z,37.50
2018-09-03T07:46:11.890Z,34.53
2018-09-03T07:48:40.933Z,32.80
2018-09-03T07:51:09.727Z,39.03
2018-09-03T07:53:38.369Z,46.17
2018-09-03T07:56:07.174Z,40.37
2018-09-03T07:58:35.845Z,34.20
2018-09-03T08:01:04.940Z,37.40
2018-09-03T08:03:33.522Z,33.63
2018-09-03T08:06:02.503Z,32.90
2018-09-03T08:08:31.423Z,34.93
2018-09-03T08:11:00.086Z,33.87
2018-09-03T08:13:34.445Z,37.23
2018-09-03T08:16:03.183Z,43.40
2018-09-03T08:18:31.913Z,51.17
2018-09-03T08:21:00.993Z,41.97
2018-09-03T08:23:29.773Z,39.57
2018-09-03T08:25:58.797Z,37.27
2018-09-03T08:28:27.593Z,40.47
2018-09-03T08:30:56.416Z,33.93
2018-09-03T08:33:25.297Z,41.00
2018-09-03T08:35:54.130Z,42.23
2018-09-03T08:38:23.169Z,35.47
2018-09-03T08:40:51.841Z,41.80
2018-09-03T08:43:20.611Z,41.93
2018-09-03T08:45:49.349Z,40.23
2018-09-03T08:48:18.077Z,38.10
2018-09-03T08:50:46.789Z,43.27
2018-09-03T08:53:15.567Z,31.17
2018-09-03T08:55:44.218Z,34.27
2018-09-03T08:58:13.074Z,29.73
2018-09-03T09:00:41.822Z,32.30
2018-09-03T09:03:15.603Z,34.30
2018-09-03T09:05:44.448Z,26.70
2018-09-03T09:08:13.100Z,25.40
2018-09-03T09:10:42.290Z,29.67
2018-09-03T09:13:11.239Z,26.57
2018-09-03T09:15:40.217Z,25.20
2018-09-03T09:18:11.789Z,30.73
2018-09-03T09:20:40.457Z,27.67
2018-09-03T09:23:09.290Z,31.53
2018-09-03T09:25:38.003Z,21.70
2018-09-03T09:28:06.835Z,30.07
2018-09-03T09:30:35.634Z,33.37
2018-09-03T09:33:04.607Z,27.00
2018-09-03T09:35:33.566Z,24.77
2018-09-03T09:38:02.330Z,25.77
2018-09-03T09:40:31.186Z,26.80
2018-09-03T09:43:00.015Z,29.43
2018-09-03T09:45:29.411Z,30.10
2018-09-03T09:47:58.238Z,25.73
2018-09-03T09:50:26.923Z,25.80
2018-09-03T09:52:55.714Z,25.23
2018-09-03T09:55:24.531Z,27.47
2018-09-03T09:57:53.314Z,28.00
2018-09-03T10:00:27.145Z,25.03
2018-09-03T10:02:56.123Z,25.70
2018-09-03T10:05:24.973Z,30.57
2018-09-03T10:07:53.645Z,27.57
2018-09-03T10:10:22.470Z,28.03
2018-09-03T10:12:51.279Z,31.17
2018-09-03T10:15:20.110Z,31.60
2018-09-03T10:17:48.918Z,31.07
2018-09-03T10:20:17.700Z,29.10
2018-09-03T10:22:46.401Z,28.07
2018-09-03T10:25:15.166Z,26.90
2018-09-03T10:27:44.104Z,31.63
2018-09-03T10:30:12.877Z,33.23
2018-09-03T10:32:41.725Z,26.40
2018-09-03T10:35:10.782Z,33.13
2018-09-03T10:37:39.626Z,44.60
2018-09-03T10:40:08.354Z,27.40
2018-09-03T10:42:37.122Z,29.93
2018-09-03T10:45:05.969Z,32.30
2018-09-03T10:47:34.919Z,23.77
2018-09-03T10:50:03.661Z,30.90
2018-09-03T10:52:32.626Z,32.63
2018-09-03T10:55:01.506Z,37.80
2018-09-03T10:57:30.146Z,31.87
2018-09-03T10:59:58.938Z,29.23
2018-09-03T11:02:27.733Z,33.00
2018-09-03T11:04:56.619Z,32.93
2018-09-03T11:07:25.867Z,37.20
2018-09-03T11:09:54.637Z,29.10
2018-09-03T11:12:23.744Z,27.40
2018-09-03T11:14:52.498Z,34.23
2018-09-03T11:17:21.298Z,34.50
2018-09-03T11:20:07.351Z,41.07
2018-09-03T11:22:35.973Z,33.20
2018-09-03T11:25:05.189Z,32.83
2018-09-03T11:27:34.089Z,29.50
2018-09-03T11:30:03.014Z,39.60
2018-09-03T11:32:31.872Z,41.93
2018-09-03T11:35:00.628Z,34.90
2018-09-03T11:37:29.542Z,34.33
2018-09-03T11:39:58.309Z,33.90
2018-09-03T11:42:27.541Z,32.93
2018-09-03T11:44:56.310Z,33.03
2018-09-03T11:47:25.254Z,32.97
2018-09-03T11:49:54.069Z,35.90
2018-09-03T11:52:22.792Z,35.17
2018-09-03T11:54:51.491Z,34.60
2018-09-03T11:57:20.251Z,32.73
2018-09-03T11:59:49.041Z,36.80
2018-09-03T12:02:17.732Z,36.53
2018-09-03T12:04:48.233Z,31.87
2018-09-03T12:07:17.066Z,35.30
2018-09-03T12:09:45.716Z,31.20
2018-09-03T12:12:14.401Z,40.13
2018-09-03T12:14:45.463Z,29.80
2018-09-03T12:17:14.373Z,26.33
2018-09-03T12:19:43.258Z,26.57
2018-09-03T12:22:12.088Z,31.57
2018-09-03T12:24:40.819Z,29.53
2018-09-03T12:27:09.674Z,24.97
2018-09-03T12:29:38.459Z,25.20
2018-09-03T12:32:07.593Z,30.70
2018-09-03T12:34:36.295Z,27.13
2018-09-03T12:37:06.006Z,25.90
2018-09-03T12:39:35.152Z,27.63
2018-09-03T12:42:03.873Z,25.07
2018-09-03T12:44:32.689Z,33.37
2018-09-03T12:47:01.890Z,27.80
2018-09-03T12:49:30.611Z,28.07
2018-09-03T12:51:59.890Z,28.30
2018-09-03T12:54:28.962Z,37.07
2018-09-03T12:56:57.813Z,23.13
2018-09-03T12:59:26.478Z,26.83
2018-09-03T13:01:55.240Z,26.37
2018-09-03T13:04:24.144Z,24.93
2018-09-03T13:06:52.897Z,23.40
2018-09-03T13:09:21.906Z,23.37
2018-09-03T13:11:50.772Z,24.87
2018-09-03T13:14:19.578Z,24.00
2018-09-03T13:16:48.692Z,23.80
2018-09-03T13:19:17.520Z,22.87
2018-09-03T13:21:45.153Z,24.47
2018-09-03T13:24:14.093Z,20.50
2018-09-03T13:26:43.003Z,20.40
2018-09-03T13:29:12.024Z,22.50
2018-09-03T13:31:40.925Z,23.00
2018-09-03T13:34:09.679Z,26.20
2018-09-03T13:36:38.367Z,25.07
2018-09-03T13:39:09.102Z,24.13
2018-09-03T13:41:36.871Z,21.67
2018-09-03T13:44:05.794Z,16.77
2018-09-03T13:46:34.861Z,17.03
2018-09-03T13:49:03.639Z,22.60
2018-09-03T13:51:32.361Z,25.00
2018-09-03T13:54:01.361Z,22.13
2018-09-03T13:56:30.186Z,23.90
2018-09-03T13:58:58.957Z,22.83
2018-09-03T14:01:27.806Z,21.80
2018-09-03T14:03:56.466Z,32.83
2018-09-03T14:06:25.375Z,23.70
2018-09-03T14:08:54.059Z,20.20
2018-09-03T14:11:22.899Z,22.07
2018-09-03T14:13:51.598Z,15.50
2018-09-03T14:16:20.410Z,23.10
2018-09-03T14:18:49.259Z,21.80
2018-09-03T14:21:18.261Z,30.43
2018-09-03T14:23:46.992Z,20.90
2018-09-03T14:26:15.686Z,33.30
2018-09-03T14:28:44.562Z,25.80
2018-09-03T14:31:13.275Z,23.40
2018-09-03T14:33:42.036Z,26.83
2018-09-03T14:36:10.865Z,22.80
2018-09-03T14:38:39.673Z,24.40
2018-09-03T14:41:08.335Z,28.43
2018-09-03T14:43:37.073Z,25.27
2018-09-03T14:46:06.077Z,26.67
2018-09-03T14:48:34.850Z,24.90
2018-09-03T14:51:03.605Z,35.43
2018-09-03T14:53:32.446Z,25.00
2018-09-03T14:56:01.134Z,19.30
2018-09-03T14:58:29.995Z,20.70
2018-09-03T15:00:58.724Z,17.90
2018-09-03T15:03:27.387Z,20.80
2018-09-03T15:05:56.024Z,18.87
2018-09-03T15:08:25.047Z,18.30
2018-09-03T15:10:53.695Z,20.97
2018-09-03T15:13:22.356Z,23.87
2018-09-03T15:15:51.140Z,22.63
2018-09-03T15:18:19.905Z,23.73
2018-09-03T15:20:48.845Z,26.43
2018-09-03T15:23:17.493Z,22.43
2018-09-03T15:25:46.177Z,19.40
2018-09-03T15:28:14.903Z,26.40
2018-09-03T15:30:43.611Z,23.87
2018-09-03T15:33:12.362Z,18.60
2018-09-03T15:35:41.364Z,25.67
2018-09-03T15:38:10.122Z,18.60
2018-09-03T15:40:38.930Z,23.07
2018-09-03T15:43:07.599Z,26.90
2018-09-03T15:45:36.405Z,23.70
2018-09-03T15:48:05.260Z,24.13
2018-09-03T15:50:34.080Z,22.23
2018-09-03T15:53:03.002Z,24.77
2018-09-03T15:55:31.897Z,27.67
2018-09-03T15:58:00.739Z,19.67
2018-09-03T16:00:29.641Z,22.97
2018-09-03T16:02:58.483Z,22.33
2018-09-03T16:05:27.273Z,27.83
2018-09-03T16:07:55.986Z,28.47
2018-09-03T16:10:24.930Z,21.87
2018-09-03T16:12:53.594Z,23.90
2018-09-03T16:15:22.385Z,21.93
2018-09-03T16:17:51.252Z,25.40
2018-09-03T16:20:19.912Z,24.53
2018-09-03T16:22:48.878Z,19.37
2018-09-03T16:25:17.853Z,21.53
2018-09-03T16:27:46.698Z,23.40
2018-09-03T16:30:15.451Z,19.73
2018-09-03T16:32:44.096Z,18.27
2018-09-03T16:35:12.929Z,18.10
2018-09-03T16:37:41.741Z,18.77
2018-09-03T16:40:11.082Z,34.80
2018-09-03T16:42:39.951Z,18.50
2018-09-03T16:45:08.698Z,17.87
2018-09-03T16:47:37.570Z,17.50
2018-09-03T16:50:06.569Z,18.67
2018-09-03T16:52:35.348Z,18.10
2018-09-03T16:55:04.078Z,14.23
2018-09-03T16:57:32.773Z,18.33
2018-09-03T17:00:01.632Z,14.13
2018-09-03T17:02:30.463Z,15.43
2018-09-03T17:04:59.233Z,15.93
2018-09-03T17:07:28.053Z,16.97
2018-09-03T17:09:56.736Z,17.30
2018-09-03T17:12:25.978Z,18.90
2018-09-03T17:14:54.842Z,18.47
2018-09-03T17:17:24.192Z,22.60
2018-09-03T17:19:53.265Z,14.60
2018-09-03T17:22:21.913Z,17.73
2018-09-03T17:24:50.655Z,20.97
2018-09-03T17:27:19.505Z,15.40
2018-09-03T17:29:48.265Z,14.70
2018-09-03T17:32:17.006Z,17.30
2018-09-03T17:34:45.673Z,20.67
2018-09-03T17:37:14.692Z,17.60
2018-09-03T17:39:43.381Z,18.13
2018-09-03T17:42:12.134Z,19.27
2018-09-03T17:44:41.067Z,19.33
2018-09-03T17:47:09.794Z,18.60
2018-09-03T17:49:38.753Z,18.77
2018-09-03T17:52:07.516Z,22.30
2018-09-03T17:54:36.277Z,16.67
2018-09-03T17:57:05.112Z,15.10
2018-09-03T17:59:33.915Z,14.27
2018-09-03T18:02:03.035Z,22.03
2018-09-03T18:04:31.733Z,20.70
2018-09-03T18:07:00.435Z,22.40
2018-09-03T18:09:29.230Z,27.13
2018-09-03T18:11:58.007Z,28.00
2018-09-03T18:14:26.802Z,33.20
2018-09-03T18:16:55.482Z,26.57
2018-09-03T18:19:24.386Z,23.40
2018-09-03T18:21:53.374Z,23.47
2018-09-03T18:24:22.201Z,31.10
2018-09-03T18:26:51.096Z,26.67
2018-09-03T18:29:19.855Z,27.87
2018-09-03T18:31:48.679Z,27.67
2018-09-03T18:34:17.393Z,38.30
2018-09-03T18:36:46.090Z,26.90
2018-09-03T18:39:15.106Z,22.70
2018-09-03T18:41:43.801Z,18.90
2018-09-03T18:44:12.478Z,20.87
2018-09-03T18:46:41.607Z,20.10
2018-09-03T18:49:10.283Z,21.77
2018-09-03T18:51:39.062Z,24.50
2018-09-03T18:54:07.437Z,27.50
2018-09-03T18:56:36.104Z,27.00
2018-09-03T18:59:05.235Z,26.40
2018-09-03T19:01:34.007Z,25.83
2018-09-03T19:04:02.818Z,27.10
2018-09-03T19:06:31.689Z,25.43
2018-09-03T19:09:00.669Z,26.77
2018-09-03T19:11:29.745Z,27.30
2018-09-03T19:13:58.613Z,23.37
2018-09-03T19:16:27.354Z,27.60
2018-09-03T19:18:56.312Z,21.90
2018-09-03T19:21:25.009Z,22.83
2018-09-03T19:23:53.874Z,28.17
2018-09-03T19:26:22.822Z,23.13
2018-09-03T19:28:51.540Z,25.00
2018-09-03T19:31:20.215Z,25.93
2018-09-03T19:33:49.130Z,26.77
2018-09-03T19:36:17.949Z,27.10
2018-09-03T19:38:46.701Z,23.23
2018-09-03T19:41:15.489Z,27.90
2018-09-03T19:43:44.174Z,24.40
2018-09-03T19:46:12.831Z,21.80
2018-09-03T19:48:41.868Z,24.37
2018-09-03T19:51:10.588Z,25.50
2018-09-03T19:53:39.275Z,24.77
2018-09-03T19:56:08.009Z,22.17
2018-09-03T19:58:36.770Z,25.40
2018-09-03T20:01:05.991Z,30.10
2018-09-03T20:03:34.849Z,23.80
2018-09-03T20:06:03.733Z,24.93
2018-09-03T20:08:33.502Z,26.63
2018-09-03T20:11:02.369Z,22.00
2018-09-03T20:13:31.681Z,24.60
2018-09-03T20:16:00.432Z,25.10
2018-09-03T20:18:29.165Z,25.53
2018-09-03T20:20:58.137Z,27.47
2018-09-03T20:23:26.888Z,27.43
2018-09-03T20:25:55.924Z,32.57
2018-09-03T20:28:24.710Z,25.10
2018-09-03T20:30:53.363Z,28.57
2018-09-03T20:33:22.230Z,30.60
2018-09-03T20:35:51.158Z,24.67
2018-09-03T20:38:20.182Z,29.40
2018-09-03T20:40:48.977Z,28.57
2018-09-03T20:43:17.632Z,25.00
2018-09-03T20:45:46.366Z,27.90
2018-09-03T20:48:15.107Z,23.83
2018-09-03T20:50:43.924Z,26.60
2018-09-03T20:53:12.695Z,28.90
2018-09-03T20:55:41.473Z,26.00
2018-09-03T20:58:10.592Z,27.57
2018-09-03T21:00:39.342Z,23.50
2018-09-03T21:03:08.030Z,23.67
2018-09-03T21:05:36.792Z,27.77
2018-09-03T21:08:05.728Z,23.17
2018-09-03T21:10:34.529Z,28.27
2018-09-03T21:13:03.598Z,25.70
2018-09-03T21:15:32.257Z,24.77
2018-09-03T21:18:00.976Z,30.73
2018-09-03T21:20:29.754Z,26.37
2018-09-03T21:22:58.450Z,24.60
2018-09-03T21:25:27.162Z,30.07
2018-09-03T21:27:55.829Z,25.70
2018-09-03T21:30:24.842Z,29.27
2018-09-03T21:32:53.494Z,24.30
2018-09-03T21:35:22.366Z,32.50
2018-09-03T21:37:51.178Z,22.30
2018-09-03T21:40:20.161Z,22.33
2018-09-03T21:42:49.094Z,30.40
2018-09-03T21:45:17.863Z,26.13
2018-09-03T21:47:46.537Z,26.13
2018-09-03T21:50:15.195Z,33.57
2018-09-03T21:52:43.941Z,29.60
2018-09-03T21:55:12.937Z,27.63
2018-09-03T21:57:41.830Z,28.90
2018-09-03T22:00:11.204Z,29.63
2018-09-03T22:02:40.032Z,19.20
2018-09-03T22:05:08.849Z,24.60
2018-09-03T22:07:37.547Z,21.73
2018-09-03T22:10:06.362Z,24.73
2018-09-03T22:12:35.181Z,29.93
2018-09-03T22:15:03.994Z,26.47
2018-09-03T22:17:32.730Z,24.50
2018-09-03T22:20:01.750Z,26.07
2018-09-03T22:22:30.514Z,22.60
2018-09-03T22:24:59.389Z,18.97
2018-09-03T22:27:28.415Z,27.57
2018-09-03T22:29:57.298Z,28.33
2018-09-03T22:32:26.410Z,26.13
2018-09-03T22:34:55.160Z,25.60
2018-09-03T22:37:23.838Z,28.23
2018-09-03T22:39:52.575Z,22.07
2018-09-03T22:42:24.978Z,27.77
2018-09-03T22:44:54.146Z,28.77
2018-09-03T22:47:23.035Z,25.37
2018-09-03T22:49:51.817Z,22.07
2018-09-03T22:52:20.844Z,21.30
2018-09-03T22:54:49.731Z,22.93
2018-09-03T22:57:18.879Z,26.67
2018-09-03T22:59:47.784Z,29.33
2018-09-03T23:02:16.479Z,21.77
2018-09-03T23:04:45.283Z,23.97
2018-09-03T23:07:13.939Z,27.70
2018-09-03T23:09:42.878Z,21.57
2018-09-03T23:12:11.609Z,22.47
2018-09-03T23:14:40.291Z,26.63
2018-09-03T23:17:09.005Z,33.20
2018-09-03T23:19:37.661Z,23.13
2018-09-03T23:22:06.801Z,26.37
2018-09-03T23:24:35.493Z,27.03
2018-09-03T23:27:04.267Z,24.27
2018-09-03T23:29:33.041Z,22.80
2018-09-03T23:32:01.703Z,21.43
2018-09-03T23:34:30.534Z,21.63
2018-09-03T23:36:59.451Z,19.50
2018-09-03T23:39:28.178Z,24.00
2018-09-03T23:41:57.105Z,32.70
2018-09-03T23:44:25.821Z,22.30
2018-09-03T23:46:54.593Z,23.97
2018-09-03T23:49:23.326Z,24.80
2018-09-03T23:51:52.026Z,23.23
2018-09-03T23:54:20.753Z,17.50
2018-09-03T23:56:49.481Z,23.57
2018-09-03T23:59:18.186Z,30.07
